sensor_id;sensor_type;location;lat;lon;timestamp;P1;durP1;ratioP1;P2;durP2;ratioP2
36257;SDS011;22294;52.044;4.582;2022-07-05T00:01:01;4.78;;;4.20;;
36257;SDS011;22294;52.044;4.582;2022-07-05T00:03:26;4.38;;;3.80;;
36257;SDS011;22294;52.044;4.582;2022-07-05T00:05:53;5.55;;;3.85;;
36257;SDS011;22294;52.044;4.582;2022-07-05T00:08:18;5.47;;;3.45;;
36257;SDS011;22294;52.044;4.582;2022-07-05T00:10:43;4.80;;;3.72;;
36257;SDS011;22294;52.044;4.582;2022-07-05T00:13:09;5.50;;;3.60;;
36257;SDS011;22294;52.044;4.582;2022-07-05T00:15:35;7.30;;;3.97;;
36257;SDS011;22294;52.044;4.582;2022-07-05T00:18:00;5.18;;;3.90;;
36257;SDS011;22294;52.044;4.582;2022-07-05T00:20:25;6.47;;;4.85;;
36257;SDS011;22294;52.044;4.582;2022-07-05T00:22:51;7.35;;;4.70;;
36257;SDS011;22294;52.044;4.582;2022-07-05T00:25:16;7.78;;;4.82;;
36257;SDS011;22294;52.044;4.582;2022-07-05T00:27:42;8.88;;;4.80;;
36257;SDS011;22294;52.044;4.582;2022-07-05T00:30:07;8.20;;;5.10;;
36257;SDS011;22294;52.044;4.582;2022-07-05T00:32:33;6.70;;;4.63;;
36257;SDS011;22294;52.044;4.582;2022-07-05T00:34:59;8.88;;;5.60;;
36257;SDS011;22294;52.044;4.582;2022-07-05T00:37:24;6.25;;;4.63;;
36257;SDS011;22294;52.044;4.582;2022-07-05T00:39:50;6.95;;;4.60;;
36257;SDS011;22294;52.044;4.582;2022-07-05T00:42:16;5.70;;;4.53;;
36257;SDS011;22294;52.044;4.582;2022-07-05T00:44:41;7.30;;;5.32;;
36257;SDS011;22294;52.044;4.582;2022-07-05T00:47:08;6.57;;;5.38;;
36257;SDS011;22294;52.044;4.582;2022-07-05T00:49:34;7.13;;;4.80;;
36257;SDS011;22294;52.044;4.582;2022-07-05T00:52:00;7.72;;;5.35;;
36257;SDS011;22294;52.044;4.582;2022-07-05T00:54:26;8.43;;;5.45;;
36257;SDS011;22294;52.044;4.582;2022-07-05T00:56:52;6.68;;;5.10;;
36257;SDS011;22294;52.044;4.582;2022-07-05T00:59:19;6.80;;;5.40;;
36257;SDS011;22294;52.044;4.582;2022-07-05T01:01:44;7.78;;;5.00;;
36257;SDS011;22294;52.044;4.582;2022-07-05T01:04:10;7.95;;;5.35;;
36257;SDS011;22294;52.044;4.582;2022-07-05T01:06:36;7.95;;;5.20;;
36257;SDS011;22294;52.044;4.582;2022-07-05T01:09:02;7.05;;;5.45;;
36257;SDS011;22294;52.044;4.582;2022-07-05T01:11:28;8.98;;;6.18;;
36257;SDS011;22294;52.044;4.582;2022-07-05T01:13:53;9.13;;;6.05;;
36257;SDS011;22294;52.044;4.582;2022-07-05T01:16:19;9.98;;;6.00;;
36257;SDS011;22294;52.044;4.582;2022-07-05T01:18:45;8.85;;;5.90;;
36257;SDS011;22294;52.044;4.582;2022-07-05T01:21:11;8.38;;;5.75;;
36257;SDS011;22294;52.044;4.582;2022-07-05T01:23:38;7.07;;;4.95;;
36257;SDS011;22294;52.044;4.582;2022-07-05T01:26:04;9.73;;;5.40;;
36257;SDS011;22294;52.044;4.582;2022-07-05T01:28:31;7.28;;;5.35;;
36257;SDS011;22294;52.044;4.582;2022-07-05T01:30:57;6.65;;;5.38;;
36257;SDS011;22294;52.044;4.582;2022-07-05T01:33:28;7.50;;;6.18;;
36257;SDS011;22294;52.044;4.582;2022-07-05T01:35:56;7.25;;;6.45;;
36257;SDS011;22294;52.044;4.582;2022-07-05T01:38:22;8.50;;;6.63;;
36257;SDS011;22294;52.044;4.582;2022-07-05T01:40:47;9.05;;;7.57;;
36257;SDS011;22294;52.044;4.582;2022-07-05T01:43:16;7.35;;;6.43;;
36257;SDS011;22294;52.044;4.582;2022-07-05T01:45:43;9.68;;;7.75;;
36257;SDS011;22294;52.044;4.582;2022-07-05T01:48:18;10.77;;;7.68;;
36257;SDS011;22294;52.044;4.582;2022-07-05T01:50:53;10.20;;;7.15;;
36257;SDS011;22294;52.044;4.582;2022-07-05T01:53:27;9.20;;;7.10;;
36257;SDS011;22294;52.044;4.582;2022-07-05T01:55:54;7.75;;;6.95;;
36257;SDS011;22294;52.044;4.582;2022-07-05T01:58:21;9.85;;;7.00;;
36257;SDS011;22294;52.044;4.582;2022-07-05T02:00:48;7.40;;;6.53;;
36257;SDS011;22294;52.044;4.582;2022-07-05T02:03:16;7.28;;;6.57;;
36257;SDS011;22294;52.044;4.582;2022-07-05T02:05:42;9.40;;;6.70;;
36257;SDS011;22294;52.044;4.582;2022-07-05T02:08:09;8.32;;;6.38;;
36257;SDS011;22294;52.044;4.582;2022-07-05T02:10:35;8.15;;;6.53;;
36257;SDS011;22294;52.044;4.582;2022-07-05T02:13:02;8.32;;;6.85;;
36257;SDS011;22294;52.044;4.582;2022-07-05T02:15:32;7.43;;;6.45;;
36257;SDS011;22294;52.044;4.582;2022-07-05T02:17:59;9.82;;;6.40;;
36257;SDS011;22294;52.044;4.582;2022-07-05T02:20:29;8.40;;;6.47;;
36257;SDS011;22294;52.044;4.582;2022-07-05T02:22:55;6.57;;;5.80;;
36257;SDS011;22294;52.044;4.582;2022-07-05T02:25:21;7.53;;;5.95;;
36257;SDS011;22294;52.044;4.582;2022-07-05T02:27:47;9.48;;;6.53;;
36257;SDS011;22294;52.044;4.582;2022-07-05T02:30:13;6.82;;;6.00;;
36257;SDS011;22294;52.044;4.582;2022-07-05T02:32:39;9.90;;;6.47;;
36257;SDS011;22294;52.044;4.582;2022-07-05T02:35:05;6.93;;;5.97;;
36257;SDS011;22294;52.044;4.582;2022-07-05T02:37:32;6.68;;;5.65;;
36257;SDS011;22294;52.044;4.582;2022-07-05T02:39:58;6.10;;;5.45;;
36257;SDS011;22294;52.044;4.582;2022-07-05T02:42:23;6.57;;;5.25;;
36257;SDS011;22294;52.044;4.582;2022-07-05T02:44:49;6.55;;;5.63;;
36257;SDS011;22294;52.044;4.582;2022-07-05T02:47:14;6.90;;;6.07;;
36257;SDS011;22294;52.044;4.582;2022-07-05T02:49:39;6.68;;;5.65;;
36257;SDS011;22294;52.044;4.582;2022-07-05T02:52:05;6.70;;;6.00;;
36257;SDS011;22294;52.044;4.582;2022-07-05T02:54:30;7.93;;;7.13;;
36257;SDS011;22294;52.044;4.582;2022-07-05T02:56:56;7.28;;;6.55;;
36257;SDS011;22294;52.044;4.582;2022-07-05T02:59:21;9.90;;;7.15;;
36257;SDS011;22294;52.044;4.582;2022-07-05T03:01:46;9.25;;;6.75;;
36257;SDS011;22294;52.044;4.582;2022-07-05T03:04:11;8.70;;;6.32;;
36257;SDS011;22294;52.044;4.582;2022-07-05T03:06:37;8.43;;;6.22;;
36257;SDS011;22294;52.044;4.582;2022-07-05T03:09:03;7.18;;;6.45;;
36257;SDS011;22294;52.044;4.582;2022-07-05T03:11:28;11.13;;;7.88;;
36257;SDS011;22294;52.044;4.582;2022-07-05T03:13:54;8.30;;;6.65;;
36257;SDS011;22294;52.044;4.582;2022-07-05T03:16:19;8.32;;;6.07;;
36257;SDS011;22294;52.044;4.582;2022-07-05T03:18:44;10.48;;;6.75;;
36257;SDS011;22294;52.044;4.582;2022-07-05T03:21:10;7.75;;;6.30;;
36257;SDS011;22294;52.044;4.582;2022-07-05T03:23:35;7.25;;;5.40;;
36257;SDS011;22294;52.044;4.582;2022-07-05T03:26:00;5.82;;;5.22;;
36257;SDS011;22294;52.044;4.582;2022-07-05T03:28:26;6.10;;;5.47;;
36257;SDS011;22294;52.044;4.582;2022-07-05T03:30:51;7.40;;;5.60;;
36257;SDS011;22294;52.044;4.582;2022-07-05T03:33:16;8.52;;;6.55;;
36257;SDS011;22294;52.044;4.582;2022-07-05T03:35:41;8.38;;;6.43;;
36257;SDS011;22294;52.044;4.582;2022-07-05T03:38:07;8.35;;;6.93;;
36257;SDS011;22294;52.044;4.582;2022-07-05T03:40:32;8.93;;;6.70;;
36257;SDS011;22294;52.044;4.582;2022-07-05T03:42:57;8.25;;;6.10;;
36257;SDS011;22294;52.044;4.582;2022-07-05T03:45:22;8.93;;;5.88;;
36257;SDS011;22294;52.044;4.582;2022-07-05T03:47:48;9.88;;;5.20;;
36257;SDS011;22294;52.044;4.582;2022-07-05T03:50:13;6.07;;;5.55;;
36257;SDS011;22294;52.044;4.582;2022-07-05T03:52:38;7.80;;;6.15;;
36257;SDS011;22294;52.044;4.582;2022-07-05T03:55:04;8.40;;;6.55;;
36257;SDS011;22294;52.044;4.582;2022-07-05T03:57:29;10.95;;;8.05;;
36257;SDS011;22294;52.044;4.582;2022-07-05T03:59:55;10.30;;;8.38;;
36257;SDS011;22294;52.044;4.582;2022-07-05T04:02:20;9.95;;;8.15;;
36257;SDS011;22294;52.044;4.582;2022-07-05T04:04:45;10.75;;;8.90;;
36257;SDS011;22294;52.044;4.582;2022-07-05T04:07:11;13.10;;;9.57;;
36257;SDS011;22294;52.044;4.582;2022-07-05T04:09:36;10.70;;;9.27;;
36257;SDS011;22294;52.044;4.582;2022-07-05T04:12:01;12.43;;;9.25;;
36257;SDS011;22294;52.044;4.582;2022-07-05T04:14:27;11.15;;;9.43;;
36257;SDS011;22294;52.044;4.582;2022-07-05T04:16:52;13.40;;;9.82;;
36257;SDS011;22294;52.044;4.582;2022-07-05T04:19:18;10.07;;;8.98;;
36257;SDS011;22294;52.044;4.582;2022-07-05T04:21:43;10.65;;;9.38;;
36257;SDS011;22294;52.044;4.582;2022-07-05T04:24:08;10.50;;;8.75;;
36257;SDS011;22294;52.044;4.582;2022-07-05T04:26:35;11.85;;;8.88;;
36257;SDS011;22294;52.044;4.582;2022-07-05T04:29:01;12.80;;;8.93;;
36257;SDS011;22294;52.044;4.582;2022-07-05T04:31:26;12.57;;;9.30;;
36257;SDS011;22294;52.044;4.582;2022-07-05T04:33:51;10.05;;;8.80;;
36257;SDS011;22294;52.044;4.582;2022-07-05T04:36:16;13.60;;;9.60;;
36257;SDS011;22294;52.044;4.582;2022-07-05T04:38:42;12.02;;;9.15;;
36257;SDS011;22294;52.044;4.582;2022-07-05T04:41:07;11.63;;;9.25;;
36257;SDS011;22294;52.044;4.582;2022-07-05T04:43:32;13.57;;;9.38;;
36257;SDS011;22294;52.044;4.582;2022-07-05T04:45:59;12.05;;;9.00;;
36257;SDS011;22294;52.044;4.582;2022-07-05T04:48:24;13.70;;;9.63;;
36257;SDS011;22294;52.044;4.582;2022-07-05T04:50:49;13.40;;;10.10;;
36257;SDS011;22294;52.044;4.582;2022-07-05T04:53:15;13.10;;;10.00;;
36257;SDS011;22294;52.044;4.582;2022-07-05T04:55:40;11.13;;;9.93;;
36257;SDS011;22294;52.044;4.582;2022-07-05T04:58:05;13.57;;;9.52;;
36257;SDS011;22294;52.044;4.582;2022-07-05T05:00:30;17.20;;;11.38;;
36257;SDS011;22294;52.044;4.582;2022-07-05T05:02:56;14.63;;;11.63;;
36257;SDS011;22294;52.044;4.582;2022-07-05T05:05:21;16.75;;;11.40;;
36257;SDS011;22294;52.044;4.582;2022-07-05T05:07:46;13.57;;;10.77;;
36257;SDS011;22294;52.044;4.582;2022-07-05T05:10:12;18.05;;;11.18;;
36257;SDS011;22294;52.044;4.582;2022-07-05T05:12:37;13.35;;;11.35;;
36257;SDS011;22294;52.044;4.582;2022-07-05T05:15:03;18.13;;;11.63;;
36257;SDS011;22294;52.044;4.582;2022-07-05T05:17:37;17.08;;;11.35;;
36257;SDS011;22294;52.044;4.582;2022-07-05T05:20:07;17.92;;;11.25;;
36257;SDS011;22294;52.044;4.582;2022-07-05T05:22:36;17.98;;;10.02;;
36257;SDS011;22294;52.044;4.582;2022-07-05T05:25:02;15.82;;;11.00;;
36257;SDS011;22294;52.044;4.582;2022-07-05T05:27:28;17.08;;;10.70;;
36257;SDS011;22294;52.044;4.582;2022-07-05T05:29:53;15.85;;;10.60;;
36257;SDS011;22294;52.044;4.582;2022-07-05T05:32:18;15.80;;;9.48;;
36257;SDS011;22294;52.044;4.582;2022-07-05T05:34:43;14.00;;;9.45;;
36257;SDS011;22294;52.044;4.582;2022-07-05T05:37:09;11.53;;;9.67;;
36257;SDS011;22294;52.044;4.582;2022-07-05T05:39:34;12.27;;;8.32;;
36257;SDS011;22294;52.044;4.582;2022-07-05T05:42:00;13.25;;;7.80;;
36257;SDS011;22294;52.044;4.582;2022-07-05T05:44:25;9.63;;;6.65;;
36257;SDS011;22294;52.044;4.582;2022-07-05T05:46:50;10.07;;;6.32;;
36257;SDS011;22294;52.044;4.582;2022-07-05T05:49:16;10.43;;;5.07;;
36257;SDS011;22294;52.044;4.582;2022-07-05T05:51:41;13.40;;;5.50;;
36257;SDS011;22294;52.044;4.582;2022-07-05T05:54:06;6.50;;;4.85;;
36257;SDS011;22294;52.044;4.582;2022-07-05T05:56:32;9.63;;;5.07;;
36257;SDS011;22294;52.044;4.582;2022-07-05T05:58:57;7.80;;;5.05;;
36257;SDS011;22294;52.044;4.582;2022-07-05T06:01:22;8.02;;;4.85;;
36257;SDS011;22294;52.044;4.582;2022-07-05T06:03:47;6.75;;;4.78;;
36257;SDS011;22294;52.044;4.582;2022-07-05T06:06:13;8.73;;;4.30;;
36257;SDS011;22294;52.044;4.582;2022-07-05T06:08:38;7.03;;;4.43;;
36257;SDS011;22294;52.044;4.582;2022-07-05T06:11:03;5.53;;;4.47;;
36257;SDS011;22294;52.044;4.582;2022-07-05T06:13:30;5.05;;;3.13;;
36257;SDS011;22294;52.044;4.582;2022-07-05T06:15:55;3.75;;;3.05;;
36257;SDS011;22294;52.044;4.582;2022-07-05T06:18:21;6.38;;;2.70;;
36257;SDS011;22294;52.044;4.582;2022-07-05T06:20:47;4.50;;;2.13;;
36257;SDS011;22294;52.044;4.582;2022-07-05T06:23:12;4.90;;;1.63;;
36257;SDS011;22294;52.044;4.582;2022-07-05T06:25:39;4.72;;;1.42;;
36257;SDS011;22294;52.044;4.582;2022-07-05T06:28:06;4.55;;;1.42;;
36257;SDS011;22294;52.044;4.582;2022-07-05T06:30:33;2.38;;;1.08;;
36257;SDS011;22294;52.044;4.582;2022-07-05T06:33:00;4.05;;;1.20;;
36257;SDS011;22294;52.044;4.582;2022-07-05T06:35:26;3.30;;;1.10;;
36257;SDS011;22294;52.044;4.582;2022-07-05T06:37:59;6.57;;;1.08;;
36257;SDS011;22294;52.044;4.582;2022-07-05T06:40:29;2.25;;;0.90;;
36257;SDS011;22294;52.044;4.582;2022-07-05T06:42:57;4.10;;;0.98;;
36257;SDS011;22294;52.044;4.582;2022-07-05T06:45:23;3.17;;;1.42;;
36257;SDS011;22294;52.044;4.582;2022-07-05T06:47:58;3.08;;;1.23;;
36257;SDS011;22294;52.044;4.582;2022-07-05T06:50:29;2.08;;;1.08;;
36257;SDS011;22294;52.044;4.582;2022-07-05T06:52:57;5.05;;;1.10;;
36257;SDS011;22294;52.044;4.582;2022-07-05T06:55:22;3.45;;;1.17;;
36257;SDS011;22294;52.044;4.582;2022-07-05T06:57:48;3.38;;;1.20;;
36257;SDS011;22294;52.044;4.582;2022-07-05T07:00:14;4.28;;;1.10;;
36257;SDS011;22294;52.044;4.582;2022-07-05T07:02:40;2.53;;;1.35;;
36257;SDS011;22294;52.044;4.582;2022-07-05T07:05:06;3.08;;;1.33;;
36257;SDS011;22294;52.044;4.582;2022-07-05T07:07:33;3.58;;;1.05;;
36257;SDS011;22294;52.044;4.582;2022-07-05T07:10:22;4.43;;;1.10;;
36257;SDS011;22294;52.044;4.582;2022-07-05T07:12:47;2.80;;;0.88;;
36257;SDS011;22294;52.044;4.582;2022-07-05T07:15:12;4.15;;;1.05;;
36257;SDS011;22294;52.044;4.582;2022-07-05T07:17:37;1.92;;;0.80;;
36257;SDS011;22294;52.044;4.582;2022-07-05T07:20:03;3.17;;;0.80;;
36257;SDS011;22294;52.044;4.582;2022-07-05T07:22:29;4.60;;;0.90;;
36257;SDS011;22294;52.044;4.582;2022-07-05T07:24:55;4.85;;;0.95;;
36257;SDS011;22294;52.044;4.582;2022-07-05T07:27:20;2.38;;;0.98;;
36257;SDS011;22294;52.044;4.582;2022-07-05T07:29:45;1.80;;;0.82;;
36257;SDS011;22294;52.044;4.582;2022-07-05T07:32:11;3.87;;;1.10;;
36257;SDS011;22294;52.044;4.582;2022-07-05T07:34:36;2.08;;;0.60;;
36257;SDS011;22294;52.044;4.582;2022-07-05T07:37:02;2.20;;;0.80;;
36257;SDS011;22294;52.044;4.582;2022-07-05T07:39:28;4.10;;;0.80;;
36257;SDS011;22294;52.044;4.582;2022-07-05T07:41:54;6.95;;;0.93;;
36257;SDS011;22294;52.044;4.582;2022-07-05T07:44:19;3.50;;;0.68;;
36257;SDS011;22294;52.044;4.582;2022-07-05T07:46:44;3.35;;;0.90;;
36257;SDS011;22294;52.044;4.582;2022-07-05T07:49:10;1.73;;;0.80;;
36257;SDS011;22294;52.044;4.582;2022-07-05T07:51:39;5.28;;;1.13;;
36257;SDS011;22294;52.044;4.582;2022-07-05T07:54:05;2.03;;;0.93;;
36257;SDS011;22294;52.044;4.582;2022-07-05T07:56:30;2.60;;;0.65;;
36257;SDS011;22294;52.044;4.582;2022-07-05T07:58:56;3.78;;;0.85;;
36257;SDS011;22294;52.044;4.582;2022-07-05T08:01:21;3.85;;;0.80;;
36257;SDS011;22294;52.044;4.582;2022-07-05T08:03:47;5.55;;;0.70;;
36257;SDS011;22294;52.044;4.582;2022-07-05T08:06:13;2.70;;;0.90;;
36257;SDS011;22294;52.044;4.582;2022-07-05T08:08:40;3.40;;;0.90;;
36257;SDS011;22294;52.044;4.582;2022-07-05T08:11:08;4.15;;;0.90;;
36257;SDS011;22294;52.044;4.582;2022-07-05T08:13:34;6.00;;;0.90;;
36257;SDS011;22294;52.044;4.582;2022-07-05T08:16:00;2.58;;;0.80;;
36257;SDS011;22294;52.044;4.582;2022-07-05T08:18:25;3.63;;;0.93;;
36257;SDS011;22294;52.044;4.582;2022-07-05T08:21:09;3.80;;;0.77;;
36257;SDS011;22294;52.044;4.582;2022-07-05T08:23:54;3.42;;;0.70;;
36257;SDS011;22294;52.044;4.582;2022-07-05T08:26:21;1.98;;;0.70;;
36257;SDS011;22294;52.044;4.582;2022-07-05T08:28:46;1.35;;;0.77;;
36257;SDS011;22294;52.044;4.582;2022-07-05T08:31:12;4.25;;;0.75;;
36257;SDS011;22294;52.044;4.582;2022-07-05T08:33:37;2.85;;;0.63;;
36257;SDS011;22294;52.044;4.582;2022-07-05T08:36:02;2.50;;;0.65;;
36257;SDS011;22294;52.044;4.582;2022-07-05T08:38:28;2.60;;;0.82;;
36257;SDS011;22294;52.044;4.582;2022-07-05T08:40:54;2.15;;;0.73;;
36257;SDS011;22294;52.044;4.582;2022-07-05T08:43:22;6.80;;;1.05;;
36257;SDS011;22294;52.044;4.582;2022-07-05T08:45:55;3.80;;;0.93;;
36257;SDS011;22294;52.044;4.582;2022-07-05T08:48:21;3.78;;;0.73;;
36257;SDS011;22294;52.044;4.582;2022-07-05T08:50:49;3.50;;;0.93;;
36257;SDS011;22294;52.044;4.582;2022-07-05T08:53:20;5.70;;;1.10;;
36257;SDS011;22294;52.044;4.582;2022-07-05T08:55:46;3.90;;;0.88;;
36257;SDS011;22294;52.044;4.582;2022-07-05T08:58:11;2.45;;;0.60;;
36257;SDS011;22294;52.044;4.582;2022-07-05T09:00:38;4.70;;;1.20;;
36257;SDS011;22294;52.044;4.582;2022-07-05T09:03:04;3.88;;;1.08;;
36257;SDS011;22294;52.044;4.582;2022-07-05T09:05:30;5.30;;;0.90;;
36257;SDS011;22294;52.044;4.582;2022-07-05T09:08:00;2.28;;;0.80;;
36257;SDS011;22294;52.044;4.582;2022-07-05T09:10:26;3.78;;;0.85;;
36257;SDS011;22294;52.044;4.582;2022-07-05T09:12:54;3.50;;;0.88;;
36257;SDS011;22294;52.044;4.582;2022-07-05T09:15:20;3.85;;;1.10;;
36257;SDS011;22294;52.044;4.582;2022-07-05T09:17:46;3.72;;;1.30;;
36257;SDS011;22294;52.044;4.582;2022-07-05T09:20:16;7.30;;;2.15;;
36257;SDS011;22294;52.044;4.582;2022-07-05T09:22:47;4.32;;;1.10;;
36257;SDS011;22294;52.044;4.582;2022-07-05T09:25:14;5.20;;;1.35;;
36257;SDS011;22294;52.044;4.582;2022-07-05T09:27:48;4.68;;;0.98;;
36257;SDS011;22294;52.044;4.582;2022-07-05T09:33:05;4.82;;;1.25;;
36257;SDS011;22294;52.044;4.582;2022-07-05T09:35:33;7.60;;;0.90;;
36257;SDS011;22294;52.044;4.582;2022-07-05T09:38:00;3.05;;;0.98;;
36257;SDS011;22294;52.044;4.582;2022-07-05T09:40:28;5.72;;;0.88;;
36257;SDS011;22294;52.044;4.582;2022-07-05T09:43:11;7.47;;;1.20;;
36257;SDS011;22294;52.044;4.582;2022-07-05T09:45:38;3.55;;;0.90;;
36257;SDS011;22294;52.044;4.582;2022-07-05T09:48:04;2.13;;;0.82;;
36257;SDS011;22294;52.044;4.582;2022-07-05T09:50:35;3.38;;;0.80;;
36257;SDS011;22294;52.044;4.582;2022-07-05T09:53:01;2.50;;;0.77;;
36257;SDS011;22294;52.044;4.582;2022-07-05T09:55:26;3.15;;;1.02;;
36257;SDS011;22294;52.044;4.582;2022-07-05T09:57:51;4.78;;;0.93;;
36257;SDS011;22294;52.044;4.582;2022-07-05T10:00:18;4.82;;;1.05;;
36257;SDS011;22294;52.044;4.582;2022-07-05T10:02:46;4.00;;;0.80;;
36257;SDS011;22294;52.044;4.582;2022-07-05T10:05:19;3.25;;;0.90;;
36257;SDS011;22294;52.044;4.582;2022-07-05T10:07:47;4.68;;;0.88;;
36257;SDS011;22294;52.044;4.582;2022-07-05T10:10:17;8.05;;;1.20;;
36257;SDS011;22294;52.044;4.582;2022-07-05T10:12:43;4.05;;;1.33;;
36257;SDS011;22294;52.044;4.582;2022-07-05T10:15:12;3.80;;;1.02;;
36257;SDS011;22294;52.044;4.582;2022-07-05T10:17:41;5.13;;;1.35;;
36257;SDS011;22294;52.044;4.582;2022-07-05T10:20:17;4.55;;;0.70;;
36257;SDS011;22294;52.044;4.582;2022-07-05T10:22:50;5.97;;;1.13;;
36257;SDS011;22294;52.044;4.582;2022-07-05T10:25:17;2.13;;;0.70;;
36257;SDS011;22294;52.044;4.582;2022-07-05T10:27:43;2.63;;;0.73;;
36257;SDS011;22294;52.044;4.582;2022-07-05T10:30:09;4.90;;;0.98;;
36257;SDS011;22294;52.044;4.582;2022-07-05T10:32:35;2.15;;;0.80;;
36257;SDS011;22294;52.044;4.582;2022-07-05T10:35:03;6.35;;;1.05;;
36257;SDS011;22294;52.044;4.582;2022-07-05T10:37:29;4.50;;;0.88;;
36257;SDS011;22294;52.044;4.582;2022-07-05T10:39:57;3.17;;;0.63;;
36257;SDS011;22294;52.044;4.582;2022-07-05T10:42:24;2.25;;;0.70;;
36257;SDS011;22294;52.044;4.582;2022-07-05T10:44:51;3.58;;;0.90;;
36257;SDS011;22294;52.044;4.582;2022-07-05T10:47:16;4.22;;;0.77;;
36257;SDS011;22294;52.044;4.582;2022-07-05T10:49:43;5.05;;;1.00;;
36257;SDS011;22294;52.044;4.582;2022-07-05T10:52:22;4.38;;;0.90;;
36257;SDS011;22294;52.044;4.582;2022-07-05T10:55:24;4.72;;;1.20;;
36257;SDS011;22294;52.044;4.582;2022-07-05T11:03:37;3.05;;;0.95;;
36257;SDS011;22294;52.044;4.582;2022-07-05T11:06:05;3.75;;;0.98;;
36257;SDS011;22294;52.044;4.582;2022-07-05T11:13:50;3.67;;;0.98;;
36257;SDS011;22294;52.044;4.582;2022-07-05T11:16:25;2.33;;;0.98;;
36257;SDS011;22294;52.044;4.582;2022-07-05T11:18:52;1.63;;;0.70;;
36257;SDS011;22294;52.044;4.582;2022-07-05T11:21:31;2.03;;;0.70;;
36257;SDS011;22294;52.044;4.582;2022-07-05T11:26:49;1.65;;;0.40;;
36257;SDS011;22294;52.044;4.582;2022-07-05T11:32:05;2.75;;;0.70;;
36257;SDS011;22294;52.044;4.582;2022-07-05T11:34:34;2.05;;;0.65;;
36257;SDS011;22294;52.044;4.582;2022-07-05T11:39:45;1.90;;;0.40;;
36257;SDS011;22294;52.044;4.582;2022-07-05T11:42:18;3.60;;;0.50;;
36257;SDS011;22294;52.044;4.582;2022-07-05T11:44:46;1.88;;;0.47;;
36257;SDS011;22294;52.044;4.582;2022-07-05T11:47:14;2.35;;;0.35;;
36257;SDS011;22294;52.044;4.582;2022-07-05T11:49:41;3.75;;;0.60;;
36257;SDS011;22294;52.044;4.582;2022-07-05T11:52:06;4.53;;;0.60;;
36257;SDS011;22294;52.044;4.582;2022-07-05T11:54:32;2.95;;;0.50;;
36257;SDS011;22294;52.044;4.582;2022-07-05T11:56:59;0.65;;;0.47;;
36257;SDS011;22294;52.044;4.582;2022-07-05T11:59:25;1.95;;;0.77;;
36257;SDS011;22294;52.044;4.582;2022-07-05T12:01:52;0.80;;;0.40;;
36257;SDS011;22294;52.044;4.582;2022-07-05T12:04:26;0.95;;;0.40;;
36257;SDS011;22294;52.044;4.582;2022-07-05T12:06:53;2.38;;;0.45;;
36257;SDS011;22294;52.044;4.582;2022-07-05T12:09:27;2.90;;;0.50;;
36257;SDS011;22294;52.044;4.582;2022-07-05T12:12:16;2.75;;;0.50;;
36257;SDS011;22294;52.044;4.582;2022-07-05T12:15:01;2.60;;;0.70;;
36257;SDS011;22294;52.044;4.582;2022-07-05T12:17:27;3.05;;;0.50;;
36257;SDS011;22294;52.044;4.582;2022-07-05T12:19:52;1.58;;;0.50;;
36257;SDS011;22294;52.044;4.582;2022-07-05T12:22:27;1.25;;;0.50;;
36257;SDS011;22294;52.044;4.582;2022-07-05T12:24:56;2.47;;;0.88;;
36257;SDS011;22294;52.044;4.582;2022-07-05T12:27:24;3.33;;;0.70;;
36257;SDS011;22294;52.044;4.582;2022-07-05T12:29:50;2.80;;;0.60;;
36257;SDS011;22294;52.044;4.582;2022-07-05T12:32:15;1.77;;;0.57;;
36257;SDS011;22294;52.044;4.582;2022-07-05T12:34:41;2.50;;;0.60;;
36257;SDS011;22294;52.044;4.582;2022-07-05T12:37:06;3.20;;;1.10;;
36257;SDS011;22294;52.044;4.582;2022-07-05T12:39:31;0.90;;;0.65;;
36257;SDS011;22294;52.044;4.582;2022-07-05T12:41:57;1.00;;;0.50;;
36257;SDS011;22294;52.044;4.582;2022-07-05T12:44:22;1.35;;;0.55;;
36257;SDS011;22294;52.044;4.582;2022-07-05T12:46:47;2.33;;;0.70;;
36257;SDS011;22294;52.044;4.582;2022-07-05T12:49:14;2.90;;;0.65;;
36257;SDS011;22294;52.044;4.582;2022-07-05T12:51:40;1.20;;;0.60;;
36257;SDS011;22294;52.044;4.582;2022-07-05T12:54:07;2.63;;;0.73;;
36257;SDS011;22294;52.044;4.582;2022-07-05T12:57:01;4.00;;;0.70;;
36257;SDS011;22294;52.044;4.582;2022-07-05T13:00:02;2.92;;;0.60;;
36257;SDS011;22294;52.044;4.582;2022-07-05T13:02:36;1.25;;;0.70;;
36257;SDS011;22294;52.044;4.582;2022-07-05T13:05:06;2.00;;;0.55;;
36257;SDS011;22294;52.044;4.582;2022-07-05T13:07:40;2.13;;;0.80;;
36257;SDS011;22294;52.044;4.582;2022-07-05T13:10:16;3.22;;;0.90;;
36257;SDS011;22294;52.044;4.582;2022-07-05T13:12:46;2.65;;;0.60;;
36257;SDS011;22294;52.044;4.582;2022-07-05T13:15:12;1.85;;;1.10;;
36257;SDS011;22294;52.044;4.582;2022-07-05T13:17:38;3.28;;;1.08;;
36257;SDS011;22294;52.044;4.582;2022-07-05T13:20:03;2.40;;;0.70;;
36257;SDS011;22294;52.044;4.582;2022-07-05T13:22:30;2.80;;;1.15;;
36257;SDS011;22294;52.044;4.582;2022-07-05T13:24:57;13.48;;;1.50;;
36257;SDS011;22294;52.044;4.582;2022-07-05T13:27:22;4.45;;;1.30;;
36257;SDS011;22294;52.044;4.582;2022-07-05T13:29:47;1.67;;;0.80;;
36257;SDS011;22294;52.044;4.582;2022-07-05T13:32:15;6.10;;;2.17;;
36257;SDS011;22294;52.044;4.582;2022-07-05T13:34:42;3.33;;;1.20;;
36257;SDS011;22294;52.044;4.582;2022-07-05T13:37:07;6.13;;;1.00;;
36257;SDS011;22294;52.044;4.582;2022-07-05T13:39:33;3.17;;;1.20;;
36257;SDS011;22294;52.044;4.582;2022-07-05T13:41:58;2.85;;;0.95;;
36257;SDS011;22294;52.044;4.582;2022-07-05T13:44:24;3.53;;;1.30;;
36257;SDS011;22294;52.044;4.582;2022-07-05T13:46:50;6.30;;;1.60;;
36257;SDS011;22294;52.044;4.582;2022-07-05T13:49:15;3.10;;;1.10;;
36257;SDS011;22294;52.044;4.582;2022-07-05T13:51:41;2.67;;;1.40;;
36257;SDS011;22294;52.044;4.582;2022-07-05T13:54:06;4.68;;;1.67;;
36257;SDS011;22294;52.044;4.582;2022-07-05T13:56:32;5.53;;;1.00;;
36257;SDS011;22294;52.044;4.582;2022-07-05T13:58:58;2.78;;;0.90;;
36257;SDS011;22294;52.044;4.582;2022-07-05T14:01:24;4.57;;;1.63;;
36257;SDS011;22294;52.044;4.582;2022-07-05T14:03:52;4.10;;;1.10;;
36257;SDS011;22294;52.044;4.582;2022-07-05T14:06:18;5.80;;;1.10;;
36257;SDS011;22294;52.044;4.582;2022-07-05T14:08:44;3.35;;;1.10;;
36257;SDS011;22294;52.044;4.582;2022-07-05T14:11:09;5.63;;;1.30;;
36257;SDS011;22294;52.044;4.582;2022-07-05T14:13:36;4.65;;;1.10;;
36257;SDS011;22294;52.044;4.582;2022-07-05T14:16:02;2.50;;;0.82;;
36257;SDS011;22294;52.044;4.582;2022-07-05T14:18:27;2.95;;;0.93;;
36257;SDS011;22294;52.044;4.582;2022-07-05T14:20:52;2.78;;;1.08;;
36257;SDS011;22294;52.044;4.582;2022-07-05T14:23:18;4.32;;;0.90;;
36257;SDS011;22294;52.044;4.582;2022-07-05T14:25:44;2.75;;;1.02;;
36257;SDS011;22294;52.044;4.582;2022-07-05T14:28:10;2.22;;;0.80;;
36257;SDS011;22294;52.044;4.582;2022-07-05T14:30:36;4.78;;;1.10;;
36257;SDS011;22294;52.044;4.582;2022-07-05T14:33:02;6.45;;;1.00;;
36257;SDS011;22294;52.044;4.582;2022-07-05T14:35:28;3.13;;;1.00;;
36257;SDS011;22294;52.044;4.582;2022-07-05T14:37:54;2.55;;;0.98;;
36257;SDS011;22294;52.044;4.582;2022-07-05T14:40:20;3.30;;;1.10;;
36257;SDS011;22294;52.044;4.582;2022-07-05T14:42:46;4.35;;;0.98;;
36257;SDS011;22294;52.044;4.582;2022-07-05T14:45:11;2.08;;;1.15;;
36257;SDS011;22294;52.044;4.582;2022-07-05T14:47:36;4.38;;;1.33;;
36257;SDS011;22294;52.044;4.582;2022-07-05T14:50:02;3.30;;;1.05;;
36257;SDS011;22294;52.044;4.582;2022-07-05T14:52:27;5.10;;;0.98;;
36257;SDS011;22294;52.044;4.582;2022-07-05T14:54:54;3.78;;;1.20;;
36257;SDS011;22294;52.044;4.582;2022-07-05T14:57:19;4.32;;;1.20;;
36257;SDS011;22294;52.044;4.582;2022-07-05T14:59:45;4.25;;;1.30;;
36257;SDS011;22294;52.044;4.582;2022-07-05T15:02:10;6.90;;;1.30;;
36257;SDS011;22294;52.044;4.582;2022-07-05T15:04:36;4.20;;;1.20;;
36257;SDS011;22294;52.044;4.582;2022-07-05T15:07:02;3.28;;;1.08;;